Archival Weather

Chicago O'Hare International

Chicago, Illinois (KORD)

Report from: Tuesday, December 13, 2022 12:02 AM CST
Current time: Monday, June 24, 2024 4:34 AM CDT

Current weather – Weather history – Daily summaries
Weather forecast

Temperature2.8°C (37.0°F)
Wind chill-2.0°C (28.5°F)
Dew point-2.2°C (28.0°F)
Winds 12 kts (6.2 m/s, 13.8 mph) East-Southeast (120°)
Visibility10 mi. (16.1 km)
Clouds Ceiling: Overcast 2,300 ft. (701 m)
Altimeter30.26 in.Hg (1025 mB)
Relative humidity70 %
Density altitude-1,791 ft. (-546 m)
Remarks Automated weather observing station with precipitation discriminator
Flight conditions Marginal Visual Meteorological Conditions
Raw dataKORD 130602Z 12012KT 10SM OVC023 03/M02 A3026 RMK AO2 T00281022
An error has occurred. This application may no longer respond until reloaded. Reload 🗙